sensor_id;sensor_type;location;lat;lon;timestamp;P1;durP1;ratioP1;P2;durP2;ratioP2
22287;SDS011;11312;51.464;6.968;2023-04-22T00:01:14;3.90;;;1.65;;
22287;SDS011;11312;51.464;6.968;2023-04-22T00:03:39;3.08;;;1.60;;
22287;SDS011;11312;51.464;6.968;2023-04-22T00:06:06;3.70;;;2.08;;
22287;SDS011;11312;51.464;6.968;2023-04-22T00:08:31;4.32;;;1.85;;
22287;SDS011;11312;51.464;6.968;2023-04-22T00:10:57;2.97;;;1.55;;
22287;SDS011;11312;51.464;6.968;2023-04-22T00:13:24;3.30;;;1.73;;
22287;SDS011;11312;51.464;6.968;2023-04-22T00:15:49;4.53;;;1.55;;
22287;SDS011;11312;51.464;6.968;2023-04-22T00:18:15;4.68;;;1.92;;
22287;SDS011;11312;51.464;6.968;2023-04-22T00:20:42;7.55;;;3.20;;
22287;SDS011;11312;51.464;6.968;2023-04-22T00:23:08;2.95;;;1.50;;
22287;SDS011;11312;51.464;6.968;2023-04-22T00:25:34;4.05;;;1.80;;
22287;SDS011;11312;51.464;6.968;2023-04-22T00:28:00;4.80;;;1.85;;
22287;SDS011;11312;51.464;6.968;2023-04-22T00:30:25;4.93;;;2.10;;
22287;SDS011;11312;51.464;6.968;2023-04-22T00:32:51;4.28;;;1.92;;
22287;SDS011;11312;51.464;6.968;2023-04-22T00:35:17;3.10;;;1.60;;
22287;SDS011;11312;51.464;6.968;2023-04-22T00:37:42;5.07;;;1.83;;
22287;SDS011;11312;51.464;6.968;2023-04-22T00:40:08;4.57;;;2.17;;
22287;SDS011;11312;51.464;6.968;2023-04-22T00:42:35;3.65;;;1.70;;
22287;SDS011;11312;51.464;6.968;2023-04-22T00:45:01;4.65;;;1.95;;
22287;SDS011;11312;51.464;6.968;2023-04-22T00:47:27;2.88;;;1.45;;
22287;SDS011;11312;51.464;6.968;2023-04-22T00:49:54;5.68;;;2.53;;
22287;SDS011;11312;51.464;6.968;2023-04-22T00:52:20;3.88;;;1.73;;
22287;SDS011;11312;51.464;6.968;2023-04-22T00:54:46;2.85;;;1.60;;
22287;SDS011;11312;51.464;6.968;2023-04-22T00:57:13;4.15;;;1.77;;
22287;SDS011;11312;51.464;6.968;2023-04-22T00:59:39;6.03;;;2.67;;
22287;SDS011;11312;51.464;6.968;2023-04-22T01:02:05;4.38;;;1.90;;
22287;SDS011;11312;51.464;6.968;2023-04-22T01:04:31;3.13;;;1.52;;
22287;SDS011;11312;51.464;6.968;2023-04-22T01:06:57;5.00;;;2.42;;
22287;SDS011;11312;51.464;6.968;2023-04-22T01:09:22;5.43;;;2.40;;
22287;SDS011;11312;51.464;6.968;2023-04-22T01:11:48;3.95;;;1.92;;
22287;SDS011;11312;51.464;6.968;2023-04-22T01:14:14;5.25;;;2.33;;
22287;SDS011;11312;51.464;6.968;2023-04-22T01:16:40;4.50;;;2.08;;
22287;SDS011;11312;51.464;6.968;2023-04-22T01:19:07;5.72;;;2.33;;
22287;SDS011;11312;51.464;6.968;2023-04-22T01:21:34;4.68;;;2.00;;
22287;SDS011;11312;51.464;6.968;2023-04-22T01:24:01;6.60;;;2.80;;
22287;SDS011;11312;51.464;6.968;2023-04-22T01:26:27;4.80;;;1.90;;
22287;SDS011;11312;51.464;6.968;2023-04-22T01:28:53;4.20;;;1.85;;
22287;SDS011;11312;51.464;6.968;2023-04-22T01:31:19;4.13;;;1.92;;
22287;SDS011;11312;51.464;6.968;2023-04-22T01:33:45;5.38;;;2.35;;
22287;SDS011;11312;51.464;6.968;2023-04-22T01:36:12;5.75;;;2.15;;
22287;SDS011;11312;51.464;6.968;2023-04-22T01:38:38;4.20;;;1.85;;
22287;SDS011;11312;51.464;6.968;2023-04-22T01:41:04;5.93;;;2.38;;
22287;SDS011;11312;51.464;6.968;2023-04-22T01:43:30;4.22;;;1.85;;
22287;SDS011;11312;51.464;6.968;2023-04-22T01:45:56;3.10;;;1.52;;
22287;SDS011;11312;51.464;6.968;2023-04-22T01:48:22;5.65;;;1.92;;
22287;SDS011;11312;51.464;6.968;2023-04-22T01:50:48;5.03;;;2.08;;
22287;SDS011;11312;51.464;6.968;2023-04-22T01:53:13;5.95;;;2.47;;
22287;SDS011;11312;51.464;6.968;2023-04-22T01:55:39;4.18;;;1.85;;
22287;SDS011;11312;51.464;6.968;2023-04-22T01:58:07;5.00;;;1.95;;
22287;SDS011;11312;51.464;6.968;2023-04-22T02:00:32;5.88;;;2.25;;
22287;SDS011;11312;51.464;6.968;2023-04-22T02:02:58;5.82;;;2.35;;
22287;SDS011;11312;51.464;6.968;2023-04-22T02:05:24;3.45;;;1.52;;
22287;SDS011;11312;51.464;6.968;2023-04-22T02:07:51;6.13;;;2.30;;
22287;SDS011;11312;51.464;6.968;2023-04-22T02:10:17;6.68;;;2.70;;
22287;SDS011;11312;51.464;6.968;2023-04-22T02:12:43;5.13;;;1.88;;
22287;SDS011;11312;51.464;6.968;2023-04-22T02:15:09;4.18;;;1.80;;
22287;SDS011;11312;51.464;6.968;2023-04-22T02:17:35;4.50;;;1.90;;
22287;SDS011;11312;51.464;6.968;2023-04-22T02:20:01;3.47;;;1.60;;
22287;SDS011;11312;51.464;6.968;2023-04-22T02:22:28;3.15;;;1.60;;
22287;SDS011;11312;51.464;6.968;2023-04-22T02:24:54;4.63;;;2.33;;
22287;SDS011;11312;51.464;6.968;2023-04-22T02:27:20;5.05;;;2.50;;
22287;SDS011;11312;51.464;6.968;2023-04-22T02:29:46;4.25;;;1.90;;
22287;SDS011;11312;51.464;6.968;2023-04-22T02:32:12;3.38;;;1.67;;
22287;SDS011;11312;51.464;6.968;2023-04-22T02:34:38;4.78;;;2.03;;
22287;SDS011;11312;51.464;6.968;2023-04-22T02:37:03;6.35;;;2.78;;
22287;SDS011;11312;51.464;6.968;2023-04-22T02:39:29;3.35;;;1.67;;
22287;SDS011;11312;51.464;6.968;2023-04-22T02:41:55;5.45;;;2.40;;
22287;SDS011;11312;51.464;6.968;2023-04-22T02:44:21;4.60;;;1.80;;
22287;SDS011;11312;51.464;6.968;2023-04-22T02:46:46;4.72;;;2.13;;
22287;SDS011;11312;51.464;6.968;2023-04-22T02:49:12;4.13;;;1.80;;
22287;SDS011;11312;51.464;6.968;2023-04-22T02:51:38;2.90;;;1.52;;
22287;SDS011;11312;51.464;6.968;2023-04-22T02:54:03;5.38;;;2.42;;
22287;SDS011;11312;51.464;6.968;2023-04-22T02:56:29;4.25;;;2.03;;
22287;SDS011;11312;51.464;6.968;2023-04-22T02:58:55;5.05;;;2.20;;
22287;SDS011;11312;51.464;6.968;2023-04-22T03:01:21;3.95;;;1.80;;
22287;SDS011;11312;51.464;6.968;2023-04-22T03:03:47;4.75;;;2.25;;
22287;SDS011;11312;51.464;6.968;2023-04-22T03:06:12;3.47;;;1.77;;
22287;SDS011;11312;51.464;6.968;2023-04-22T03:08:38;12.27;;;2.95;;
22287;SDS011;11312;51.464;6.968;2023-04-22T03:11:03;5.88;;;2.78;;
22287;SDS011;11312;51.464;6.968;2023-04-22T03:13:29;5.63;;;2.28;;
22287;SDS011;11312;51.464;6.968;2023-04-22T03:15:55;4.97;;;2.33;;
22287;SDS011;11312;51.464;6.968;2023-04-22T03:18:21;5.55;;;2.28;;
22287;SDS011;11312;51.464;6.968;2023-04-22T03:20:46;4.57;;;2.28;;
22287;SDS011;11312;51.464;6.968;2023-04-22T03:23:13;3.85;;;1.70;;
22287;SDS011;11312;51.464;6.968;2023-04-22T03:25:38;4.97;;;2.05;;
22287;SDS011;11312;51.464;6.968;2023-04-22T03:28:05;4.00;;;1.73;;
22287;SDS011;11312;51.464;6.968;2023-04-22T03:30:30;4.07;;;1.98;;
22287;SDS011;11312;51.464;6.968;2023-04-22T03:32:56;3.72;;;1.90;;
22287;SDS011;11312;51.464;6.968;2023-04-22T03:35:22;4.80;;;2.08;;
22287;SDS011;11312;51.464;6.968;2023-04-22T03:37:48;4.78;;;2.00;;
22287;SDS011;11312;51.464;6.968;2023-04-22T03:40:14;4.18;;;1.98;;
22287;SDS011;11312;51.464;6.968;2023-04-22T03:42:39;5.45;;;2.38;;
22287;SDS011;11312;51.464;6.968;2023-04-22T03:45:06;4.00;;;1.88;;
22287;SDS011;11312;51.464;6.968;2023-04-22T03:47:31;6.82;;;1.92;;
22287;SDS011;11312;51.464;6.968;2023-04-22T03:49:57;4.28;;;1.85;;
22287;SDS011;11312;51.464;6.968;2023-04-22T03:52:22;4.78;;;2.05;;
22287;SDS011;11312;51.464;6.968;2023-04-22T03:54:48;4.97;;;1.83;;
22287;SDS011;11312;51.464;6.968;2023-04-22T03:57:14;3.13;;;1.52;;
22287;SDS011;11312;51.464;6.968;2023-04-22T03:59:39;2.85;;;1.50;;
22287;SDS011;11312;51.464;6.968;2023-04-22T04:02:05;3.58;;;1.73;;
22287;SDS011;11312;51.464;6.968;2023-04-22T04:04:31;4.30;;;1.77;;
22287;SDS011;11312;51.464;6.968;2023-04-22T04:06:58;3.30;;;1.65;;
22287;SDS011;11312;51.464;6.968;2023-04-22T04:09:24;2.67;;;1.50;;
22287;SDS011;11312;51.464;6.968;2023-04-22T04:11:51;3.60;;;1.73;;
22287;SDS011;11312;51.464;6.968;2023-04-22T04:14:16;4.45;;;2.03;;
22287;SDS011;11312;51.464;6.968;2023-04-22T04:16:42;3.72;;;1.90;;
22287;SDS011;11312;51.464;6.968;2023-04-22T04:19:08;4.80;;;2.03;;
22287;SDS011;11312;51.464;6.968;2023-04-22T04:21:34;3.35;;;1.60;;
22287;SDS011;11312;51.464;6.968;2023-04-22T04:24:00;4.63;;;1.83;;
22287;SDS011;11312;51.464;6.968;2023-04-22T04:26:27;4.05;;;1.83;;
22287;SDS011;11312;51.464;6.968;2023-04-22T04:28:52;3.40;;;1.83;;
22287;SDS011;11312;51.464;6.968;2023-04-22T04:31:19;4.78;;;1.92;;
22287;SDS011;11312;51.464;6.968;2023-04-22T04:33:45;5.55;;;2.58;;
22287;SDS011;11312;51.464;6.968;2023-04-22T04:36:11;3.25;;;1.63;;
22287;SDS011;11312;51.464;6.968;2023-04-22T04:38:37;6.38;;;2.92;;
22287;SDS011;11312;51.464;6.968;2023-04-22T04:41:03;4.20;;;1.90;;
22287;SDS011;11312;51.464;6.968;2023-04-22T04:43:29;5.22;;;1.88;;
22287;SDS011;11312;51.464;6.968;2023-04-22T04:45:54;3.80;;;1.75;;
22287;SDS011;11312;51.464;6.968;2023-04-22T04:48:20;4.47;;;2.05;;
22287;SDS011;11312;51.464;6.968;2023-04-22T04:50:48;4.28;;;2.33;;
22287;SDS011;11312;51.464;6.968;2023-04-22T04:53:17;4.40;;;2.00;;
22287;SDS011;11312;51.464;6.968;2023-04-22T04:55:44;4.22;;;1.73;;
22287;SDS011;11312;51.464;6.968;2023-04-22T04:58:10;3.22;;;1.73;;
22287;SDS011;11312;51.464;6.968;2023-04-22T05:00:35;3.55;;;1.70;;
22287;SDS011;11312;51.464;6.968;2023-04-22T05:03:01;4.95;;;2.17;;
22287;SDS011;11312;51.464;6.968;2023-04-22T05:05:27;4.93;;;1.85;;
22287;SDS011;11312;51.464;6.968;2023-04-22T05:07:52;5.80;;;2.17;;
22287;SDS011;11312;51.464;6.968;2023-04-22T05:10:18;5.53;;;1.92;;
22287;SDS011;11312;51.464;6.968;2023-04-22T05:12:45;3.75;;;1.70;;
22287;SDS011;11312;51.464;6.968;2023-04-22T05:15:12;3.17;;;1.60;;
22287;SDS011;11312;51.464;6.968;2023-04-22T05:17:38;4.93;;;2.10;;
22287;SDS011;11312;51.464;6.968;2023-04-22T05:20:04;6.20;;;2.28;;
22287;SDS011;11312;51.464;6.968;2023-04-22T05:22:30;4.65;;;2.25;;
22287;SDS011;11312;51.464;6.968;2023-04-22T05:24:56;4.55;;;2.17;;
22287;SDS011;11312;51.464;6.968;2023-04-22T05:27:22;4.63;;;2.20;;
22287;SDS011;11312;51.464;6.968;2023-04-22T05:29:47;5.63;;;2.35;;
22287;SDS011;11312;51.464;6.968;2023-04-22T05:32:13;2.75;;;1.50;;
22287;SDS011;11312;51.464;6.968;2023-04-22T05:34:39;4.80;;;1.98;;
22287;SDS011;11312;51.464;6.968;2023-04-22T05:37:04;8.30;;;3.17;;
22287;SDS011;11312;51.464;6.968;2023-04-22T05:39:30;3.75;;;1.90;;
22287;SDS011;11312;51.464;6.968;2023-04-22T05:41:56;5.47;;;2.63;;
22287;SDS011;11312;51.464;6.968;2023-04-22T05:44:22;3.72;;;1.83;;
22287;SDS011;11312;51.464;6.968;2023-04-22T05:46:48;6.53;;;2.42;;
22287;SDS011;11312;51.464;6.968;2023-04-22T05:49:13;4.53;;;2.00;;
22287;SDS011;11312;51.464;6.968;2023-04-22T05:51:39;4.47;;;1.98;;
22287;SDS011;11312;51.464;6.968;2023-04-22T05:54:06;3.85;;;1.88;;
22287;SDS011;11312;51.464;6.968;2023-04-22T05:56:31;3.78;;;1.63;;
22287;SDS011;11312;51.464;6.968;2023-04-22T05:58:57;5.30;;;2.58;;
22287;SDS011;11312;51.464;6.968;2023-04-22T06:01:23;2.60;;;1.48;;
22287;SDS011;11312;51.464;6.968;2023-04-22T06:03:49;2.67;;;1.60;;
22287;SDS011;11312;51.464;6.968;2023-04-22T06:06:14;6.05;;;1.75;;
22287;SDS011;11312;51.464;6.968;2023-04-22T06:08:40;7.47;;;2.85;;
22287;SDS011;11312;51.464;6.968;2023-04-22T06:11:06;4.32;;;1.98;;
22287;SDS011;11312;51.464;6.968;2023-04-22T06:13:32;4.43;;;2.05;;
22287;SDS011;11312;51.464;6.968;2023-04-22T06:15:58;5.55;;;2.33;;
22287;SDS011;11312;51.464;6.968;2023-04-22T06:18:23;7.63;;;2.35;;
22287;SDS011;11312;51.464;6.968;2023-04-22T06:20:50;4.13;;;1.75;;
22287;SDS011;11312;51.464;6.968;2023-04-22T06:23:15;9.07;;;1.88;;
22287;SDS011;11312;51.464;6.968;2023-04-22T06:25:41;5.03;;;2.10;;
22287;SDS011;11312;51.464;6.968;2023-04-22T06:28:07;3.15;;;1.70;;
22287;SDS011;11312;51.464;6.968;2023-04-22T06:30:33;4.32;;;2.03;;
22287;SDS011;11312;51.464;6.968;2023-04-22T06:32:59;6.57;;;2.55;;
22287;SDS011;11312;51.464;6.968;2023-04-22T06:35:24;5.80;;;3.00;;
22287;SDS011;11312;51.464;6.968;2023-04-22T06:37:50;4.20;;;1.90;;
22287;SDS011;11312;51.464;6.968;2023-04-22T06:40:16;4.53;;;2.03;;
22287;SDS011;11312;51.464;6.968;2023-04-22T06:42:42;1.88;;;1.33;;
22287;SDS011;11312;51.464;6.968;2023-04-22T06:45:08;4.82;;;1.95;;
22287;SDS011;11312;51.464;6.968;2023-04-22T06:47:36;2.78;;;1.58;;
22287;SDS011;11312;51.464;6.968;2023-04-22T06:50:08;3.60;;;2.00;;
22287;SDS011;11312;51.464;6.968;2023-04-22T06:52:34;3.25;;;1.50;;
22287;SDS011;11312;51.464;6.968;2023-04-22T06:55:00;2.50;;;1.40;;
22287;SDS011;11312;51.464;6.968;2023-04-22T06:57:27;3.08;;;1.52;;
22287;SDS011;11312;51.464;6.968;2023-04-22T06:59:53;2.85;;;1.60;;
22287;SDS011;11312;51.464;6.968;2023-04-22T07:02:20;3.65;;;1.67;;
22287;SDS011;11312;51.464;6.968;2023-04-22T07:04:45;2.03;;;1.30;;
22287;SDS011;11312;51.464;6.968;2023-04-22T07:07:11;5.07;;;1.95;;
22287;SDS011;11312;51.464;6.968;2023-04-22T07:09:38;1.60;;;1.13;;
22287;SDS011;11312;51.464;6.968;2023-04-22T07:12:03;1.55;;;1.20;;
22287;SDS011;11312;51.464;6.968;2023-04-22T07:14:29;2.80;;;1.40;;
22287;SDS011;11312;51.464;6.968;2023-04-22T07:16:56;1.55;;;1.13;;
22287;SDS011;11312;51.464;6.968;2023-04-22T07:19:22;1.75;;;1.40;;
22287;SDS011;11312;51.464;6.968;2023-04-22T07:21:48;4.43;;;1.65;;
22287;SDS011;11312;51.464;6.968;2023-04-22T07:24:13;1.90;;;1.13;;
22287;SDS011;11312;51.464;6.968;2023-04-22T07:26:40;3.05;;;1.55;;
22287;SDS011;11312;51.464;6.968;2023-04-22T07:29:06;1.60;;;1.13;;
22287;SDS011;11312;51.464;6.968;2023-04-22T07:31:33;1.55;;;1.20;;
22287;SDS011;11312;51.464;6.968;2023-04-22T07:33:59;10.75;;;1.80;;
22287;SDS011;11312;51.464;6.968;2023-04-22T07:36:25;2.33;;;1.20;;
22287;SDS011;11312;51.464;6.968;2023-04-22T07:41:16;1.92;;;1.20;;
22287;SDS011;11312;51.464;6.968;2023-04-22T07:43:42;1.23;;;1.10;;
22287;SDS011;11312;51.464;6.968;2023-04-22T07:46:07;1.25;;;1.10;;
22287;SDS011;11312;51.464;6.968;2023-04-22T07:48:33;1.77;;;1.17;;
22287;SDS011;11312;51.464;6.968;2023-04-22T07:50:58;1.33;;;1.08;;
22287;SDS011;11312;51.464;6.968;2023-04-22T07:53:24;1.23;;;1.10;;
22287;SDS011;11312;51.464;6.968;2023-04-22T07:55:50;1.15;;;1.05;;
22287;SDS011;11312;51.464;6.968;2023-04-22T07:58:16;2.25;;;1.48;;
22287;SDS011;11312;51.464;6.968;2023-04-22T08:00:41;1.25;;;1.10;;
22287;SDS011;11312;51.464;6.968;2023-04-22T08:03:07;3.70;;;1.65;;
22287;SDS011;11312;51.464;6.968;2023-04-22T08:05:32;1.17;;;1.08;;
22287;SDS011;11312;51.464;6.968;2023-04-22T08:07:58;1.10;;;1.00;;
22287;SDS011;11312;51.464;6.968;2023-04-22T08:10:24;0.90;;;0.90;;
22287;SDS011;11312;51.464;6.968;2023-04-22T08:12:50;1.10;;;1.00;;
22287;SDS011;11312;51.464;6.968;2023-04-22T08:15:15;0.90;;;0.90;;
22287;SDS011;11312;51.464;6.968;2023-04-22T08:17:41;1.48;;;1.10;;
22287;SDS011;11312;51.464;6.968;2023-04-22T08:20:07;1.30;;;1.08;;
22287;SDS011;11312;51.464;6.968;2023-04-22T08:22:33;0.80;;;0.80;;
22287;SDS011;11312;51.464;6.968;2023-04-22T08:24:59;1.17;;;0.98;;
22287;SDS011;11312;51.464;6.968;2023-04-22T08:27:25;1.25;;;0.98;;
22287;SDS011;11312;51.464;6.968;2023-04-22T08:29:51;0.93;;;0.90;;
22287;SDS011;11312;51.464;6.968;2023-04-22T08:32:16;2.17;;;1.13;;
22287;SDS011;11312;51.464;6.968;2023-04-22T08:34:44;0.82;;;0.82;;
22287;SDS011;11312;51.464;6.968;2023-04-22T08:37:10;0.80;;;0.80;;
22287;SDS011;11312;51.464;6.968;2023-04-22T08:39:35;0.73;;;0.73;;
22287;SDS011;11312;51.464;6.968;2023-04-22T08:42:01;1.55;;;1.05;;
22287;SDS011;11312;51.464;6.968;2023-04-22T08:44:28;0.73;;;0.73;;
22287;SDS011;11312;51.464;6.968;2023-04-22T08:46:54;2.80;;;1.55;;
22287;SDS011;11312;51.464;6.968;2023-04-22T08:49:20;7.15;;;1.52;;
22287;SDS011;11312;51.464;6.968;2023-04-22T09:18:43;0.85;;;0.82;;
22287;SDS011;11312;51.464;6.968;2023-04-22T09:21:12;0.80;;;0.80;;
22287;SDS011;11312;51.464;6.968;2023-04-22T09:23:45;0.60;;;0.60;;
22287;SDS011;11312;51.464;6.968;2023-04-22T09:26:12;0.65;;;0.65;;
22287;SDS011;11312;51.464;6.968;2023-04-22T09:28:46;1.05;;;0.90;;
22287;SDS011;11312;51.464;6.968;2023-04-22T09:31:17;4.13;;;0.93;;
22287;SDS011;11312;51.464;6.968;2023-04-22T09:33:56;0.90;;;0.77;;
22287;SDS011;11312;51.464;6.968;2023-04-22T09:36:26;1.25;;;0.82;;
22287;SDS011;11312;51.464;6.968;2023-04-22T09:39:00;4.80;;;1.35;;
22287;SDS011;11312;51.464;6.968;2023-04-22T09:41:31;0.55;;;0.55;;
22287;SDS011;11312;51.464;6.968;2023-04-22T09:43:59;0.90;;;0.85;;
22287;SDS011;11312;51.464;6.968;2023-04-22T09:51:22;0.57;;;0.57;;
22287;SDS011;11312;51.464;6.968;2023-04-22T09:57:10;0.63;;;0.50;;
22287;SDS011;11312;51.464;6.968;2023-04-22T09:59:27;0.75;;;0.63;;
22287;SDS011;11312;51.464;6.968;2023-04-22T10:01:55;0.85;;;0.73;;
22287;SDS011;11312;51.464;6.968;2023-04-22T10:04:22;1.05;;;0.70;;
22287;SDS011;11312;51.464;6.968;2023-04-22T10:06:50;0.60;;;0.60;;
22287;SDS011;11312;51.464;6.968;2023-04-22T10:09:17;0.60;;;0.60;;
22287;SDS011;11312;51.464;6.968;2023-04-22T10:11:44;0.98;;;0.85;;
22287;SDS011;11312;51.464;6.968;2023-04-22T10:14:10;1.08;;;0.75;;
22287;SDS011;11312;51.464;6.968;2023-04-22T10:16:38;1.30;;;0.80;;
22287;SDS011;11312;51.464;6.968;2023-04-22T10:19:06;0.70;;;0.70;;
22287;SDS011;11312;51.464;6.968;2023-04-22T10:21:33;2.67;;;1.35;;
22287;SDS011;11312;51.464;6.968;2023-04-22T10:23:59;0.80;;;0.80;;
22287;SDS011;11312;51.464;6.968;2023-04-22T10:26:38;0.40;;;0.40;;
22287;SDS011;11312;51.464;6.968;2023-04-22T10:29:18;1.33;;;0.70;;
22287;SDS011;11312;51.464;6.968;2023-04-22T10:31:54;0.40;;;0.40;;
22287;SDS011;11312;51.464;6.968;2023-04-22T10:34:27;1.52;;;0.70;;
22287;SDS011;11312;51.464;6.968;2023-04-22T10:36:57;0.70;;;0.70;;
22287;SDS011;11312;51.464;6.968;2023-04-22T10:39:30;0.40;;;0.40;;
22287;SDS011;11312;51.464;6.968;2023-04-22T10:44:28;0.88;;;0.65;;
22287;SDS011;11312;51.464;6.968;2023-04-22T10:47:09;1.25;;;0.82;;
22287;SDS011;11312;51.464;6.968;2023-04-22T10:49:34;0.93;;;0.60;;
22287;SDS011;11312;51.464;6.968;2023-04-22T10:52:00;1.85;;;1.00;;
22287;SDS011;11312;51.464;6.968;2023-04-22T11:49:28;1.45;;;0.80;;
22287;SDS011;11312;51.464;6.968;2023-04-22T11:51:57;0.50;;;0.50;;
22287;SDS011;11312;51.464;6.968;2023-04-22T11:54:29;0.47;;;0.47;;
22287;SDS011;11312;51.464;6.968;2023-04-22T11:57:05;0.50;;;0.50;;
22287;SDS011;11312;51.464;6.968;2023-04-22T11:59:32;0.60;;;0.52;;
22287;SDS011;11312;51.464;6.968;2023-04-22T12:01:58;1.65;;;0.85;;
22287;SDS011;11312;51.464;6.968;2023-04-22T12:04:24;0.88;;;0.70;;
22287;SDS011;11312;51.464;6.968;2023-04-22T12:06:52;0.63;;;0.50;;
22287;SDS011;11312;51.464;6.968;2023-04-22T12:09:18;1.10;;;0.80;;
22287;SDS011;11312;51.464;6.968;2023-04-22T12:11:47;1.00;;;0.65;;
22287;SDS011;11312;51.464;6.968;2023-04-22T12:14:15;0.50;;;0.50;;
22287;SDS011;11312;51.464;6.968;2023-04-22T12:16:41;2.55;;;1.10;;
22287;SDS011;11312;51.464;6.968;2023-04-22T12:19:07;0.95;;;0.75;;
22287;SDS011;11312;51.464;6.968;2023-04-22T12:21:33;0.40;;;0.40;;
22287;SDS011;11312;51.464;6.968;2023-04-22T12:24:00;0.80;;;0.52;;
22287;SDS011;11312;51.464;6.968;2023-04-22T12:26:34;1.63;;;1.13;;
22287;SDS011;11312;51.464;6.968;2023-04-22T12:29:02;0.55;;;0.55;;
22287;SDS011;11312;51.464;6.968;2023-04-22T12:31:28;0.40;;;0.40;;
22287;SDS011;11312;51.464;6.968;2023-04-22T12:33:53;0.52;;;0.52;;
22287;SDS011;11312;51.464;6.968;2023-04-22T12:36:20;1.75;;;0.90;;
22287;SDS011;11312;51.464;6.968;2023-04-22T12:38:46;0.50;;;0.50;;
22287;SDS011;11312;51.464;6.968;2023-04-22T12:41:12;0.75;;;0.60;;
22287;SDS011;11312;51.464;6.968;2023-04-22T12:43:37;0.68;;;0.68;;
22287;SDS011;11312;51.464;6.968;2023-04-22T12:46:04;2.30;;;0.85;;
22287;SDS011;11312;51.464;6.968;2023-04-22T12:48:31;1.08;;;0.68;;
22287;SDS011;11312;51.464;6.968;2023-04-22T12:50:57;3.72;;;1.25;;
22287;SDS011;11312;51.464;6.968;2023-04-22T12:53:23;0.52;;;0.43;;
22287;SDS011;11312;51.464;6.968;2023-04-22T12:55:49;1.15;;;0.65;;
22287;SDS011;11312;51.464;6.968;2023-04-22T12:58:15;13.20;;;0.95;;
22287;SDS011;11312;51.464;6.968;2023-04-22T13:00:40;0.50;;;0.50;;
22287;SDS011;11312;51.464;6.968;2023-04-22T13:03:06;2.55;;;0.98;;
22287;SDS011;11312;51.464;6.968;2023-04-22T13:05:31;0.77;;;0.60;;
22287;SDS011;11312;51.464;6.968;2023-04-22T13:07:57;0.50;;;0.50;;
22287;SDS011;11312;51.464;6.968;2023-04-22T13:10:23;0.57;;;0.57;;
22287;SDS011;11312;51.464;6.968;2023-04-22T13:12:52;0.35;;;0.35;;
22287;SDS011;11312;51.464;6.968;2023-04-22T13:15:18;1.48;;;0.85;;
22287;SDS011;11312;51.464;6.968;2023-04-22T13:17:44;0.63;;;0.60;;
22287;SDS011;11312;51.464;6.968;2023-04-22T13:20:10;1.30;;;0.68;;
22287;SDS011;11312;51.464;6.968;2023-04-22T13:22:38;0.60;;;0.60;;
22287;SDS011;11312;51.464;6.968;2023-04-22T13:25:05;1.95;;;0.95;;
22287;SDS011;11312;51.464;6.968;2023-04-22T13:27:34;0.98;;;0.70;;
22287;SDS011;11312;51.464;6.968;2023-04-22T13:30:00;0.65;;;0.57;;
22287;SDS011;11312;51.464;6.968;2023-04-22T13:32:25;2.92;;;1.58;;
22287;SDS011;11312;51.464;6.968;2023-04-22T13:34:51;0.98;;;0.85;;
22287;SDS011;11312;51.464;6.968;2023-04-22T13:37:17;1.23;;;0.90;;
22287;SDS011;11312;51.464;6.968;2023-04-22T13:39:44;1.20;;;0.80;;
22287;SDS011;11312;51.464;6.968;2023-04-22T13:42:10;0.60;;;0.60;;
22287;SDS011;11312;51.464;6.968;2023-04-22T13:44:35;1.67;;;0.93;;
22287;SDS011;11312;51.464;6.968;2023-04-22T13:47:01;0.95;;;0.70;;
22287;SDS011;11312;51.464;6.968;2023-04-22T13:49:27;0.73;;;0.73;;
22287;SDS011;11312;51.464;6.968;2023-04-22T13:51:53;0.93;;;0.88;;
22287;SDS011;11312;51.464;6.968;2023-04-22T13:54:18;4.78;;;1.65;;
22287;SDS011;11312;51.464;6.968;2023-04-22T13:56:44;0.75;;;0.75;;
22287;SDS011;11312;51.464;6.968;2023-04-22T13:59:10;2.42;;;1.02;;
22287;SDS011;11312;51.464;6.968;2023-04-22T14:01:35;0.82;;;0.75;;
22287;SDS011;11312;51.464;6.968;2023-04-22T14:04:02;1.63;;;1.00;;
22287;SDS011;11312;51.464;6.968;2023-04-22T14:06:28;1.25;;;0.90;;
22287;SDS011;11312;51.464;6.968;2023-04-22T14:08:53;0.80;;;0.75;;
22287;SDS011;11312;51.464;6.968;2023-04-22T14:11:19;1.00;;;0.90;;
22287;SDS011;11312;51.464;6.968;2023-04-22T14:13:45;0.95;;;0.80;;
22287;SDS011;11312;51.464;6.968;2023-04-22T14:16:12;2.17;;;1.08;;
22287;SDS011;11312;51.464;6.968;2023-04-22T14:18:38;1.60;;;0.98;;
22287;SDS011;11312;51.464;6.968;2023-04-22T14:21:05;2.30;;;1.25;;
22287;SDS011;11312;51.464;6.968;2023-04-22T14:23:34;4.57;;;1.75;;
22287;SDS011;11312;51.464;6.968;2023-04-22T14:26:02;0.95;;;0.85;;
22287;SDS011;11312;51.464;6.968;2023-04-22T14:28:30;0.80;;;0.75;;
22287;SDS011;11312;51.464;6.968;2023-04-22T14:30:57;0.80;;;0.80;;
22287;SDS011;11312;51.464;6.968;2023-04-22T14:33:23;0.70;;;0.70;;
22287;SDS011;11312;51.464;6.968;2023-04-22T14:35:50;0.82;;;0.82;;
22287;SDS011;11312;51.464;6.968;2023-04-22T14:38:16;1.25;;;0.95;;
22287;SDS011;11312;51.464;6.968;2023-04-22T14:40:42;0.95;;;0.90;;
22287;SDS011;11312;51.464;6.968;2023-04-22T14:43:08;1.10;;;1.00;;
22287;SDS011;11312;51.464;6.968;2023-04-22T14:45:34;0.77;;;0.77;;
22287;SDS011;11312;51.464;6.968;2023-04-22T14:48:00;0.82;;;0.82;;
22287;SDS011;11312;51.464;6.968;2023-04-22T14:50:25;2.10;;;1.10;;
22287;SDS011;11312;51.464;6.968;2023-04-22T14:52:51;0.77;;;0.77;;
22287;SDS011;11312;51.464;6.968;2023-04-22T14:55:17;0.80;;;0.80;;
22287;SDS011;11312;51.464;6.968;2023-04-22T14:57:44;1.50;;;1.08;;
22287;SDS011;11312;51.464;6.968;2023-04-22T15:00:10;1.23;;;1.00;;
22287;SDS011;11312;51.464;6.968;2023-04-22T15:02:36;1.17;;;1.00;;
22287;SDS011;11312;51.464;6.968;2023-04-22T15:05:02;0.98;;;0.90;;
22287;SDS011;11312;51.464;6.968;2023-04-22T15:07:28;1.52;;;1.00;;
22287;SDS011;11312;51.464;6.968;2023-04-22T15:09:54;0.98;;;0.90;;
22287;SDS011;11312;51.464;6.968;2023-04-22T15:12:22;0.98;;;0.95;;
22287;SDS011;11312;51.464;6.968;2023-04-22T15:14:49;0.93;;;0.90;;
22287;SDS011;11312;51.464;6.968;2023-04-22T15:17:14;3.88;;;1.42;;
22287;SDS011;11312;51.464;6.968;2023-04-22T15:19:40;1.50;;;1.17;;
22287;SDS011;11312;51.464;6.968;2023-04-22T15:22:06;2.53;;;1.38;;
22287;SDS011;11312;51.464;6.968;2023-04-22T15:24:31;1.83;;;1.00;;
22287;SDS011;11312;51.464;6.968;2023-04-22T15:26:57;0.80;;;0.80;;
22287;SDS011;11312;51.464;6.968;2023-04-22T15:29:23;5.07;;;1.52;;
22287;SDS011;11312;51.464;6.968;2023-04-22T15:31:48;0.90;;;0.90;;
22287;SDS011;11312;51.464;6.968;2023-04-22T15:34:14;0.90;;;0.90;;
22287;SDS011;11312;51.464;6.968;2023-04-22T15:36:39;1.35;;;1.00;;
22287;SDS011;11312;51.464;6.968;2023-04-22T15:39:05;1.00;;;0.90;;
22287;SDS011;11312;51.464;6.968;2023-04-22T15:41:34;3.40;;;1.42;;
22287;SDS011;11312;51.464;6.968;2023-04-22T15:44:00;1.00;;;0.90;;
22287;SDS011;11312;51.464;6.968;2023-04-22T15:46:30;0.80;;;0.80;;
22287;SDS011;11312;51.464;6.968;2023-04-22T15:48:57;2.15;;;1.20;;
22287;SDS011;11312;51.464;6.968;2023-04-22T15:51:23;3.78;;;1.55;;
22287;SDS011;11312;51.464;6.968;2023-04-22T15:53:50;1.30;;;1.10;;
22287;SDS011;11312;51.464;6.968;2023-04-22T15:56:17;0.88;;;0.80;;
22287;SDS011;11312;51.464;6.968;2023-04-22T15:58:42;0.75;;;0.75;;
22287;SDS011;11312;51.464;6.968;2023-04-22T16:01:08;0.80;;;0.80;;
22287;SDS011;11312;51.464;6.968;2023-04-22T16:03:33;0.90;;;0.90;;
22287;SDS011;11312;51.464;6.968;2023-04-22T16:05:59;2.78;;;1.17;;
22287;SDS011;11312;51.464;6.968;2023-04-22T16:08:25;2.83;;;1.20;;
22287;SDS011;11312;51.464;6.968;2023-04-22T16:10:51;1.10;;;1.00;;
22287;SDS011;11312;51.464;6.968;2023-04-22T16:13:17;0.90;;;0.80;;
22287;SDS011;11312;51.464;6.968;2023-04-22T16:15:43;1.67;;;0.90;;
22287;SDS011;11312;51.464;6.968;2023-04-22T16:18:10;0.80;;;0.77;;